sensor_id;sensor_type;location;lat;lon;timestamp;pressure;altitude;pressure_sealevel;temperature;humidity
77281;BME280;66339;47.262;17.144;2023-05-16T00:00:42;99755.81;;;19.73;55.51
77281;BME280;66339;47.262;17.144;2023-05-16T00:03:13;99761.44;;;19.72;55.45
77281;BME280;66339;47.262;17.144;2023-05-16T00:05:43;99762.00;;;19.69;55.74
77281;BME280;66339;47.262;17.144;2023-05-16T00:08:12;99769.00;;;19.70;55.85
77281;BME280;66339;47.262;17.144;2023-05-16T00:10:48;99767.13;;;19.70;55.52
77281;BME280;66339;47.262;17.144;2023-05-16T00:13:18;99763.63;;;19.70;55.48
77281;BME280;66339;47.262;17.144;2023-05-16T00:15:45;99761.22;;;19.68;55.48
77281;BME280;66339;47.262;17.144;2023-05-16T00:18:15;99760.94;;;19.70;55.53
77281;BME280;66339;47.262;17.144;2023-05-16T00:20:57;99749.69;;;19.68;55.45
77281;BME280;66339;47.262;17.144;2023-05-16T00:23:26;99745.12;;;19.68;55.37
77281;BME280;66339;47.262;17.144;2023-05-16T00:26:00;99743.53;;;19.67;55.39
77281;BME280;66339;47.262;17.144;2023-05-16T00:28:42;99743.84;;;19.66;55.42
77281;BME280;66339;47.262;17.144;2023-05-16T00:31:14;99738.47;;;19.66;55.35
77281;BME280;66339;47.262;17.144;2023-05-16T00:33:41;99728.81;;;19.65;55.41
77281;BME280;66339;47.262;17.144;2023-05-16T00:36:11;99732.59;;;19.64;55.37
77281;BME280;66339;47.262;17.144;2023-05-16T00:38:41;99728.31;;;19.62;55.39
77281;BME280;66339;47.262;17.144;2023-05-16T00:41:08;99729.09;;;19.63;55.44
77281;BME280;66339;47.262;17.144;2023-05-16T00:43:40;99718.69;;;19.61;55.42
77281;BME280;66339;47.262;17.144;2023-05-16T00:46:07;99713.31;;;19.61;55.36
77281;BME280;66339;47.262;17.144;2023-05-16T00:48:34;99707.94;;;19.61;55.33
77281;BME280;66339;47.262;17.144;2023-05-16T00:51:01;99699.91;;;19.61;55.29
77281;BME280;66339;47.262;17.144;2023-05-16T00:53:30;99699.91;;;19.61;55.25
77281;BME280;66339;47.262;17.144;2023-05-16T00:56:06;99686.50;;;19.61;55.27
77281;BME280;66339;47.262;17.144;2023-05-16T00:58:36;99684.06;;;19.60;55.28
77281;BME280;66339;47.262;17.144;2023-05-16T01:01:08;99685.44;;;19.57;55.30
77281;BME280;66339;47.262;17.144;2023-05-16T01:03:38;99681.94;;;19.57;55.32
77281;BME280;66339;47.262;17.144;2023-05-16T01:06:09;99688.13;;;19.57;55.29
77281;BME280;66339;47.262;17.144;2023-05-16T01:08:36;99694.56;;;19.56;55.26
77281;BME280;66339;47.262;17.144;2023-05-16T01:13:47;99675.28;;;19.54;55.24
77281;BME280;66339;47.262;17.144;2023-05-16T01:16:39;99675.00;;;19.56;55.16
77281;BME280;66339;47.262;17.144;2023-05-16T01:19:10;99690.59;;;19.54;55.24
77281;BME280;66339;47.262;17.144;2023-05-16T01:24:43;99691.97;;;19.51;55.29
77281;BME280;66339;47.262;17.144;2023-05-16T01:27:18;99693.28;;;19.54;55.23
77281;BME280;66339;47.262;17.144;2023-05-16T01:29:46;99692.75;;;19.52;55.23
77281;BME280;66339;47.262;17.144;2023-05-16T01:32:15;99697.34;;;19.51;55.23
77281;BME280;66339;47.262;17.144;2023-05-16T01:34:49;99708.06;;;19.51;55.27
77281;BME280;66339;47.262;17.144;2023-05-16T01:37:18;99720.97;;;19.49;55.31
77281;BME280;66339;47.262;17.144;2023-05-16T01:53:55;99723.66;;;19.49;55.12
77281;BME280;66339;47.262;17.144;2023-05-16T01:56:23;99704.37;;;19.47;55.07
77281;BME280;66339;47.262;17.144;2023-05-16T01:58:51;99682.91;;;19.47;55.06
77281;BME280;66339;47.262;17.144;2023-05-16T02:01:21;99674.84;;;19.47;55.05
77281;BME280;66339;47.262;17.144;2023-05-16T02:03:52;99671.66;;;19.45;55.06
77281;BME280;66339;47.262;17.144;2023-05-16T02:06:23;99667.91;;;19.46;55.04
77281;BME280;66339;47.262;17.144;2023-05-16T02:08:51;99667.13;;;19.46;54.97
77281;BME280;66339;47.262;17.144;2023-05-16T02:11:20;99675.75;;;19.43;55.07
77281;BME280;66339;47.262;17.144;2023-05-16T02:13:50;99669.28;;;19.44;55.05
77281;BME280;66339;47.262;17.144;2023-05-16T02:16:17;99671.16;;;19.43;55.05
77281;BME280;66339;47.262;17.144;2023-05-16T02:18:44;99645.44;;;19.42;55.03
77281;BME280;66339;47.262;17.144;2023-05-16T02:21:15;99633.09;;;19.41;55.00
77281;BME280;66339;47.262;17.144;2023-05-16T02:23:46;99632.03;;;19.42;54.97
77281;BME280;66339;47.262;17.144;2023-05-16T02:26:19;99639.78;;;19.44;54.93
77281;BME280;66339;47.262;17.144;2023-05-16T02:28:46;99630.94;;;19.43;54.92
77281;BME280;66339;47.262;17.144;2023-05-16T02:31:13;99624.78;;;19.43;54.94
77281;BME280;66339;47.262;17.144;2023-05-16T02:33:54;99622.38;;;19.41;54.93
77281;BME280;66339;47.262;17.144;2023-05-16T02:36:24;99617.00;;;19.41;54.96
77281;BME280;66339;47.262;17.144;2023-05-16T02:38:55;99621.59;;;19.41;54.97
77281;BME280;66339;47.262;17.144;2023-05-16T02:41:23;99625.06;;;19.41;54.92
77281;BME280;66339;47.262;17.144;2023-05-16T02:43:50;99638.47;;;19.41;54.89
77281;BME280;66339;47.262;17.144;2023-05-16T02:46:24;99640.66;;;19.39;54.94
77281;BME280;66339;47.262;17.144;2023-05-16T02:48:55;99643.81;;;19.41;54.88
77281;BME280;66339;47.262;17.144;2023-05-16T02:51:26;99638.47;;;19.41;54.90
77281;BME280;66339;47.262;17.144;2023-05-16T02:53:53;99640.66;;;19.39;54.96
77281;BME280;66339;47.262;17.144;2023-05-16T02:56:22;99642.25;;;19.40;54.88
77281;BME280;66339;47.262;17.144;2023-05-16T02:58:49;99629.13;;;19.38;54.92
77281;BME280;66339;47.262;17.144;2023-05-16T03:01:21;99623.47;;;19.40;54.90
77281;BME280;66339;47.262;17.144;2023-05-16T03:03:54;99621.88;;;19.39;54.89
77281;BME280;66339;47.262;17.144;2023-05-16T03:06:21;99612.25;;;19.38;54.86
77281;BME280;66339;47.262;17.144;2023-05-16T03:08:52;99610.63;;;19.37;54.91
77281;BME280;66339;47.262;17.144;2023-05-16T03:11:22;99614.94;;;19.38;54.86
77281;BME280;66339;47.262;17.144;2023-05-16T03:13:51;99630.50;;;19.36;54.91
77281;BME280;66339;47.262;17.144;2023-05-16T03:16:18;99634.78;;;19.37;54.90
77281;BME280;66339;47.262;17.144;2023-05-16T03:18:49;99631.03;;;19.38;54.84
77281;BME280;66339;47.262;17.144;2023-05-16T03:21:16;99644.44;;;19.38;54.82
77281;BME280;66339;47.262;17.144;2023-05-16T03:23:47;99643.63;;;19.37;54.86
77281;BME280;66339;47.262;17.144;2023-05-16T03:26:13;99642.81;;;19.37;54.86
77281;BME280;66339;47.262;17.144;2023-05-16T03:28:44;99646.59;;;19.36;54.83
77281;BME280;66339;47.262;17.144;2023-05-16T03:31:14;99654.62;;;19.36;54.81
77281;BME280;66339;47.262;17.144;2023-05-16T03:33:42;99662.69;;;19.36;54.82
77281;BME280;66339;47.262;17.144;2023-05-16T03:36:17;99656.53;;;19.35;54.82
77281;BME280;66339;47.262;17.144;2023-05-16T03:38:47;99655.72;;;19.35;54.84
77281;BME280;66339;47.262;17.144;2023-05-16T03:41:14;99656.81;;;19.34;54.83
77281;BME280;66339;47.262;17.144;2023-05-16T03:43:41;99661.38;;;19.33;54.83
77281;BME280;66339;47.262;17.144;2023-05-16T03:46:11;99668.63;;;19.33;54.87
77281;BME280;66339;47.262;17.144;2023-05-16T03:48:38;99668.63;;;19.33;54.86
77281;BME280;66339;47.262;17.144;2023-05-16T03:51:08;99668.63;;;19.33;54.81
77281;BME280;66339;47.262;17.144;2023-05-16T03:53:36;99673.19;;;19.32;54.86
77281;BME280;66339;47.262;17.144;2023-05-16T03:56:09;99661.66;;;19.32;54.84
77281;BME280;66339;47.262;17.144;2023-05-16T03:58:42;99667.03;;;19.32;54.84
77281;BME280;66339;47.262;17.144;2023-05-16T04:01:09;99688.47;;;19.32;54.80
77281;BME280;66339;47.262;17.144;2023-05-16T04:03:39;99691.97;;;19.32;54.82
77281;BME280;66339;47.262;17.144;2023-05-16T04:06:06;99695.44;;;19.33;54.83
77281;BME280;66339;47.262;17.144;2023-05-16T04:08:43;99679.34;;;19.33;54.92
77281;BME280;66339;47.262;17.144;2023-05-16T04:11:10;99680.97;;;19.34;54.95
77281;BME280;66339;47.262;17.144;2023-05-16T04:13:43;99671.81;;;19.35;54.97
77281;BME280;66339;47.262;17.144;2023-05-16T04:16:13;99681.44;;;19.36;55.00
77281;BME280;66339;47.262;17.144;2023-05-16T04:18:40;99689.22;;;19.37;54.97
77281;BME280;66339;47.262;17.144;2023-05-16T04:21:07;99695.31;;;19.43;54.77
77281;BME280;66339;47.262;17.144;2023-05-16T04:23:37;99687.75;;;19.45;54.81
77281;BME280;66339;47.262;17.144;2023-05-16T04:26:05;99694.72;;;19.46;54.74
77281;BME280;66339;47.262;17.144;2023-05-16T04:28:33;99689.59;;;19.50;54.67
77281;BME280;66339;47.262;17.144;2023-05-16T04:31:03;99686.59;;;19.51;54.66
77281;BME280;66339;47.262;17.144;2023-05-16T04:33:30;99679.06;;;19.53;54.66
77281;BME280;66339;47.262;17.144;2023-05-16T04:36:03;99671.50;;;19.55;54.49
77281;BME280;66339;47.262;17.144;2023-05-16T04:38:35;99664.00;;;19.57;54.41
77281;BME280;66339;47.262;17.144;2023-05-16T04:41:02;99649.47;;;19.58;54.44
77281;BME280;66339;47.262;17.144;2023-05-16T04:43:32;99644.91;;;19.59;54.45
77281;BME280;66339;47.262;17.144;2023-05-16T04:45:58;99653.19;;;19.62;54.34
77281;BME280;66339;47.262;17.144;2023-05-16T04:48:29;99656.91;;;19.67;54.19
77281;BME280;66339;47.262;17.144;2023-05-16T04:50:55;99656.91;;;19.67;54.20
77281;BME280;66339;47.262;17.144;2023-05-16T04:53:22;99657.09;;;19.70;54.12
77281;BME280;66339;47.262;17.144;2023-05-16T04:55:49;99660.59;;;19.71;54.09
77281;BME280;66339;47.262;17.144;2023-05-16T04:58:21;99662.69;;;19.74;53.99
77281;BME280;66339;47.262;17.144;2023-05-16T05:00:54;99656.53;;;19.73;53.97
77281;BME280;66339;47.262;17.144;2023-05-16T05:03:21;99655.12;;;19.76;53.94
77281;BME280;66339;47.262;17.144;2023-05-16T05:05:52;99645.19;;;19.76;53.86
77281;BME280;66339;47.262;17.144;2023-05-16T05:08:20;99648.38;;;19.78;53.82
77281;BME280;66339;47.262;17.144;2023-05-16T05:10:51;99661.50;;;19.80;53.81
77281;BME280;66339;47.262;17.144;2023-05-16T05:13:18;99672.22;;;19.80;53.87
77281;BME280;66339;47.262;17.144;2023-05-16T05:15:45;99675.72;;;19.80;53.82
77281;BME280;66339;47.262;17.144;2023-05-16T05:18:18;99686.97;;;19.82;53.81
77281;BME280;66339;47.262;17.144;2023-05-16T05:20:47;99689.34;;;19.84;53.75
77281;BME280;66339;47.262;17.144;2023-05-16T05:23:14;99700.38;;;19.82;53.88
77281;BME280;66339;47.262;17.144;2023-05-16T05:25:45;99711.59;;;19.84;53.86
77281;BME280;66339;47.262;17.144;2023-05-16T05:28:15;99723.16;;;19.85;53.85
77281;BME280;66339;47.262;17.144;2023-05-16T05:30:42;99727.44;;;19.86;53.81
77281;BME280;66339;47.262;17.144;2023-05-16T05:33:16;99713.22;;;19.85;53.81
77281;BME280;66339;47.262;17.144;2023-05-16T05:35:49;99709.13;;;19.88;53.67
77281;BME280;66339;47.262;17.144;2023-05-16T05:38:19;99702.69;;;19.89;53.53
77281;BME280;66339;47.262;17.144;2023-05-16T05:40:50;99708.06;;;19.89;53.54
77281;BME280;66339;47.262;17.144;2023-05-16T05:43:20;99700.00;;;19.89;53.57
77281;BME280;66339;47.262;17.144;2023-05-16T05:45:50;99694.13;;;19.87;53.52
77281;BME280;66339;47.262;17.144;2023-05-16T05:48:18;99689.06;;;19.85;54.09
77281;BME280;66339;47.262;17.144;2023-05-16T05:50:51;99680.22;;;19.85;54.20
77281;BME280;66339;47.262;17.144;2023-05-16T05:53:18;99683.19;;;19.83;54.20
77281;BME280;66339;47.262;17.144;2023-05-16T05:55:45;99691.31;;;19.78;54.63
77281;BME280;66339;47.262;17.144;2023-05-16T05:58:15;99680.81;;;19.82;54.59
77281;BME280;66339;47.262;17.144;2023-05-16T06:00:42;99681.81;;;19.86;54.40
77281;BME280;66339;47.262;17.144;2023-05-16T06:03:16;99676.13;;;19.87;54.46
77281;BME280;66339;47.262;17.144;2023-05-16T06:05:46;99675.06;;;19.89;54.58
77281;BME280;66339;47.262;17.144;2023-05-16T06:08:13;99667.81;;;19.89;54.59
77281;BME280;66339;47.262;17.144;2023-05-16T06:10:40;99667.81;;;19.89;54.69
77281;BME280;66339;47.262;17.144;2023-05-16T06:13:10;99653.28;;;19.90;54.66
77281;BME280;66339;47.262;17.144;2023-05-16T06:15:40;99640.09;;;19.94;54.82
77281;BME280;66339;47.262;17.144;2023-05-16T06:18:07;99637.19;;;19.90;55.12
77281;BME280;66339;47.262;17.144;2023-05-16T06:20:35;99636.31;;;19.95;54.73
77281;BME280;66339;47.262;17.144;2023-05-16T06:23:01;99647.81;;;19.95;55.06
77281;BME280;66339;47.262;17.144;2023-05-16T06:25:29;99654.38;;;19.89;55.13
77281;BME280;66339;47.262;17.144;2023-05-16T06:27:58;99649.03;;;19.89;55.24
77281;BME280;66339;47.262;17.144;2023-05-16T06:30:25;99640.44;;;19.87;55.38
77281;BME280;66339;47.262;17.144;2023-05-16T06:32:52;99646.91;;;19.86;55.45
77281;BME280;66339;47.262;17.144;2023-05-16T06:35:20;99645.34;;;19.85;55.52
77281;BME280;66339;47.262;17.144;2023-05-16T06:37:47;99646.41;;;19.84;55.41
77281;BME280;66339;47.262;17.144;2023-05-16T06:40:13;99649.19;;;19.79;55.27
77281;BME280;66339;47.262;17.144;2023-05-16T06:42:40;99640.56;;;19.82;55.29
77281;BME280;66339;47.262;17.144;2023-05-16T06:45:06;99643.03;;;19.78;55.31
77281;BME280;66339;47.262;17.144;2023-05-16T06:47:33;99636.06;;;19.77;55.33
77281;BME280;66339;47.262;17.144;2023-05-16T06:50:00;99639.53;;;19.78;55.44
77281;BME280;66339;47.262;17.144;2023-05-16T06:52:27;99645.19;;;19.76;55.54
77281;BME280;66339;47.262;17.144;2023-05-16T06:54:53;99660.78;;;19.74;55.65
77281;BME280;66339;47.262;17.144;2023-05-16T06:57:20;99672.63;;;19.73;55.95
77281;BME280;66339;47.262;17.144;2023-05-16T06:59:47;99669.44;;;19.71;55.76
77281;BME280;66339;47.262;17.144;2023-05-16T07:02:14;99659.47;;;19.72;55.69
77281;BME280;66339;47.262;17.144;2023-05-16T07:04:40;99657.09;;;19.70;55.73
77281;BME280;66339;47.262;17.144;2023-05-16T07:07:07;99653.62;;;19.70;55.75
77281;BME280;66339;47.262;17.144;2023-05-16T07:09:34;99665.44;;;19.69;55.80
77281;BME280;66339;47.262;17.144;2023-05-16T07:12:03;99672.41;;;19.70;55.90
77281;BME280;66339;47.262;17.144;2023-05-16T07:14:30;99672.41;;;19.70;55.84
77281;BME280;66339;47.262;17.144;2023-05-16T07:16:56;99663.25;;;19.71;56.36
77281;BME280;66339;47.262;17.144;2023-05-16T07:19:26;99661.69;;;19.70;56.36
77281;BME280;66339;47.262;17.144;2023-05-16T07:21:56;99656.00;;;19.71;56.24
77281;BME280;66339;47.262;17.144;2023-05-16T07:24:26;99656.81;;;19.72;56.22
77281;BME280;66339;47.262;17.144;2023-05-16T07:26:55;99647.75;;;19.68;56.37
77281;BME280;66339;47.262;17.144;2023-05-16T07:29:21;99647.75;;;19.68;56.46
77281;BME280;66339;47.262;17.144;2023-05-16T07:31:48;99643.47;;;19.67;56.29
77281;BME280;66339;47.262;17.144;2023-05-16T07:34:15;99644.56;;;19.66;56.43
77281;BME280;66339;47.262;17.144;2023-05-16T07:36:42;99652.63;;;19.66;56.39
77281;BME280;66339;47.262;17.144;2023-05-16T07:39:09;99648.53;;;19.68;56.27
77281;BME280;66339;47.262;17.144;2023-05-16T07:41:42;99639.22;;;19.66;56.44
77281;BME280;66339;47.262;17.144;2023-05-16T07:44:09;99624.47;;;19.63;56.50
77281;BME280;66339;47.262;17.144;2023-05-16T07:46:40;99629.84;;;19.63;56.47
77281;BME280;66339;47.262;17.144;2023-05-16T07:49:07;99632.22;;;19.65;56.90
77281;BME280;66339;47.262;17.144;2023-05-16T07:51:34;99623.12;;;19.66;56.64
77281;BME280;66339;47.262;17.144;2023-05-16T07:54:01;99623.91;;;19.66;56.92
77281;BME280;66339;47.262;17.144;2023-05-16T07:56:28;99623.12;;;19.66;56.74
77281;BME280;66339;47.262;17.144;2023-05-16T07:58:58;99629.53;;;19.65;56.93
77281;BME280;66339;47.262;17.144;2023-05-16T08:01:27;99629.53;;;19.65;56.93
77281;BME280;66339;47.262;17.144;2023-05-16T08:03:54;99635.44;;;19.67;56.84
77281;BME280;66339;47.262;17.144;2023-05-16T08:06:20;99629.28;;;19.66;56.66
77281;BME280;66339;47.262;17.144;2023-05-16T08:08:50;99629.53;;;19.65;56.71
77281;BME280;66339;47.262;17.144;2023-05-16T08:11:17;99627.69;;;19.65;56.50
77281;BME280;66339;47.262;17.144;2023-05-16T08:13:44;99637.59;;;19.65;56.44
77281;BME280;66339;47.262;17.144;2023-05-16T08:16:14;99641.69;;;19.62;56.55
77281;BME280;66339;47.262;17.144;2023-05-16T08:18:41;99644.59;;;19.60;56.89
77281;BME280;66339;47.262;17.144;2023-05-16T08:21:07;99652.66;;;19.60;56.71
77281;BME280;66339;47.262;17.144;2023-05-16T08:23:37;99658.03;;;19.60;56.68
77281;BME280;66339;47.262;17.144;2023-05-16T08:26:03;99652.44;;;19.57;57.05
77281;BME280;66339;47.262;17.144;2023-05-16T08:28:30;99651.66;;;19.56;56.93
77281;BME280;66339;47.262;17.144;2023-05-16T08:31:06;99660.22;;;19.58;56.87
77281;BME280;66339;47.262;17.144;2023-05-16T08:33:32;99662.38;;;19.56;57.17
77281;BME280;66339;47.262;17.144;2023-05-16T08:35:59;99690.00;;;19.57;57.12
77281;BME280;66339;47.262;17.144;2023-05-16T08:38:29;99717.63;;;19.57;57.29
77281;BME280;66339;47.262;17.144;2023-05-16T08:40:55;99720.31;;;19.57;57.22
77281;BME280;66339;47.262;17.144;2023-05-16T08:43:23;99708.50;;;19.58;57.04
77281;BME280;66339;47.262;17.144;2023-05-16T08:45:50;99697.75;;;19.58;56.93
77281;BME280;66339;47.262;17.144;2023-05-16T08:48:25;99690.81;;;19.57;56.93
77281;BME280;66339;47.262;17.144;2023-05-16T08:50:56;99696.44;;;19.56;57.16
77281;BME280;66339;47.262;17.144;2023-05-16T08:53:29;99694.56;;;19.56;57.02
77281;BME280;66339;47.262;17.144;2023-05-16T08:56:01;99683.84;;;19.56;56.96
77281;BME280;66339;47.262;17.144;2023-05-16T08:58:31;99690.28;;;19.55;56.92
77281;BME280;66339;47.262;17.144;2023-05-16T09:00:57;99680.66;;;19.54;57.10
77281;BME280;66339;47.262;17.144;2023-05-16T09:03:24;99678.06;;;19.49;57.06
77281;BME280;66339;47.262;17.144;2023-05-16T09:05:51;99674.28;;;19.50;56.92
77281;BME280;66339;47.262;17.144;2023-05-16T09:08:17;99668.13;;;19.50;56.98
77281;BME280;66339;47.262;17.144;2023-05-16T09:10:44;99671.09;;;19.48;57.17
77281;BME280;66339;47.262;17.144;2023-05-16T09:13:14;99663.81;;;19.49;57.14
77281;BME280;66339;47.262;17.144;2023-05-16T09:15:40;99671.66;;;19.45;57.53
77281;BME280;66339;47.262;17.144;2023-05-16T09:18:11;99676.44;;;19.48;57.05
77281;BME280;66339;47.262;17.144;2023-05-16T09:20:46;99669.50;;;19.47;56.92
77281;BME280;66339;47.262;17.144;2023-05-16T09:23:14;99672.69;;;19.49;57.12
77281;BME280;66339;47.262;17.144;2023-05-16T09:25:42;99669.19;;;19.49;57.18
77281;BME280;66339;47.262;17.144;2023-05-16T09:28:12;99668.91;;;19.50;57.34
77281;BME280;66339;47.262;17.144;2023-05-16T09:30:39;99657.66;;;19.48;57.23
77281;BME280;66339;47.262;17.144;2023-05-16T09:33:08;99666.72;;;19.52;57.37
77281;BME280;66339;47.262;17.144;2023-05-16T09:35:34;99659.19;;;19.54;57.33
77281;BME280;66339;47.262;17.144;2023-05-16T09:38:16;99657.63;;;19.53;57.06
77281;BME280;66339;47.262;17.144;2023-05-16T09:40:45;99662.16;;;19.53;56.95
77281;BME280;66339;47.262;17.144;2023-05-16T09:43:16;99650.63;;;19.52;56.86
77281;BME280;66339;47.262;17.144;2023-05-16T09:45:46;99654.41;;;19.51;57.04
77281;BME280;66339;47.262;17.144;2023-05-16T09:48:14;99644.47;;;19.52;56.58
77281;BME280;66339;47.262;17.144;2023-05-16T09:50:52;99658.97;;;19.51;56.67
77281;BME280;66339;47.262;17.144;2023-05-16T09:53:30;99656.59;;;19.49;56.88
77281;BME280;66339;47.262;17.144;2023-05-16T09:56:06;99649.63;;;19.48;56.80
77281;BME280;66339;47.262;17.144;2023-05-16T09:58:34;99651.25;;;19.49;56.58
77281;BME280;66339;47.262;17.144;2023-05-16T10:01:01;99651.81;;;19.46;56.72
77281;BME280;66339;47.262;17.144;2023-05-16T10:03:29;99651.81;;;19.46;56.80
77281;BME280;66339;47.262;17.144;2023-05-16T10:05:57;99643.78;;;19.46;56.72
77281;BME280;66339;47.262;17.144;2023-05-16T10:08:25;99650.72;;;19.47;56.65
77281;BME280;66339;47.262;17.144;2023-05-16T10:10:53;99638.41;;;19.46;56.70
77281;BME280;66339;47.262;17.144;2023-05-16T10:13:20;99629.56;;;19.46;56.70
77281;BME280;66339;47.262;17.144;2023-05-16T10:15:48;99635.72;;;19.46;56.61
77281;BME280;66339;47.262;17.144;2023-05-16T10:18:17;99635.72;;;19.46;56.69
77281;BME280;66339;47.262;17.144;2023-05-16T10:20:46;99638.41;;;19.46;56.59
77281;BME280;66339;47.262;17.144;2023-05-16T10:23:18;99635.72;;;19.46;56.73
77281;BME280;66339;47.262;17.144;2023-05-16T10:25:46;99642.69;;;19.47;56.72
77281;BME280;66339;47.262;17.144;2023-05-16T10:28:16;99635.72;;;19.46;56.67
77281;BME280;66339;47.262;17.144;2023-05-16T10:30:49;99642.16;;;19.45;56.74
77281;BME280;66339;47.262;17.144;2023-05-16T10:33:17;99638.69;;;19.45;56.76
77281;BME280;66339;47.262;17.144;2023-05-16T10:35:48;99642.16;;;19.45;57.06
77281;BME280;66339;47.262;17.144;2023-05-16T10:38:16;99643.81;;;19.41;57.20
77281;BME280;66339;47.262;17.144;2023-05-16T10:40:49;99644.84;;;19.45;57.09
77281;BME280;66339;47.262;17.144;2023-05-16T10:43:23;99646.44;;;19.46;57.21
77281;BME280;66339;47.262;17.144;2023-05-16T10:45:58;99659.56;;;19.48;56.98
77281;BME280;66339;47.262;17.144;2023-05-16T10:48:32;99664.13;;;19.47;57.34
77281;BME280;66339;47.262;17.144;2023-05-16T10:51:02;99671.09;;;19.48;57.10
77281;BME280;66339;47.262;17.144;2023-05-16T10:53:34;99681.22;;;19.51;56.99
77281;BME280;66339;47.262;17.144;2023-05-16T11:01:15;99663.47;;;19.55;57.07
77281;BME280;66339;47.262;17.144;2023-05-16T11:04:01;99632.28;;;19.59;56.89
77281;BME280;66339;47.262;17.144;2023-05-16T11:06:29;99618.31;;;19.62;56.74
77281;BME280;66339;47.262;17.144;2023-05-16T11:11:37;99582.91;;;19.60;56.57
77281;BME280;66339;47.262;17.144;2023-05-16T11:14:16;99567.84;;;19.65;56.21
77281;BME280;66339;47.262;17.144;2023-05-16T11:16:48;99554.94;;;19.67;56.03
77281;BME280;66339;47.262;17.144;2023-05-16T11:19:27;99556.84;;;19.66;55.94
77281;BME280;66339;47.262;17.144;2023-05-16T11:24:44;99544.78;;;19.64;56.18
77281;BME280;66339;47.262;17.144;2023-05-16T11:27:36;99546.38;;;19.65;56.08
77281;BME280;66339;47.262;17.144;2023-05-16T11:32:44;99535.66;;;19.65;55.89
77281;BME280;66339;47.262;17.144;2023-05-16T11:35:15;99531.38;;;19.64;55.94
77281;BME280;66339;47.262;17.144;2023-05-16T11:37:42;99527.91;;;19.63;55.90
77281;BME280;66339;47.262;17.144;2023-05-16T11:40:10;99517.97;;;19.64;55.90
77281;BME280;66339;47.262;17.144;2023-05-16T11:42:39;99524.12;;;19.64;55.79
77281;BME280;66339;47.262;17.144;2023-05-16T11:45:18;99524.44;;;19.62;55.92
77281;BME280;66339;47.262;17.144;2023-05-16T11:47:51;99528.78;;;19.58;56.09
77281;BME280;66339;47.262;17.144;2023-05-16T11:50:23;99540.59;;;19.57;55.93
77281;BME280;66339;47.262;17.144;2023-05-16T11:52:50;99533.63;;;19.56;55.95
77281;BME280;66339;47.262;17.144;2023-05-16T11:55:19;99532.81;;;19.56;55.99
77281;BME280;66339;47.262;17.144;2023-05-16T11:58:06;99530.94;;;19.56;56.02
77281;BME280;66339;47.262;17.144;2023-05-16T12:00:32;99527.75;;;19.54;56.04
77281;BME280;66339;47.262;17.144;2023-05-16T12:03:00;99515.94;;;19.55;55.90
77281;BME280;66339;47.262;17.144;2023-05-16T12:05:27;99502.53;;;19.55;55.83
77281;BME280;66339;47.262;17.144;2023-05-16T12:07:57;99492.31;;;19.57;55.74
77281;BME280;66339;47.262;17.144;2023-05-16T12:10:27;99489.13;;;19.55;55.80
77281;BME280;66339;47.262;17.144;2023-05-16T12:12:59;99488.63;;;19.53;55.96
77281;BME280;66339;47.262;17.144;2023-05-16T12:15:26;99487.53;;;19.54;55.94
77281;BME280;66339;47.262;17.144;2023-05-16T12:17:58;99476.81;;;19.54;55.91
77281;BME280;66339;47.262;17.144;2023-05-16T12:20:25;99464.78;;;19.52;56.29
77281;BME280;66339;47.262;17.144;2023-05-16T12:23:01;99463.66;;;19.53;56.01
77281;BME280;66339;47.262;17.144;2023-05-16T12:25:31;99454.84;;;19.52;55.94
77281;BME280;66339;47.262;17.144;2023-05-16T12:27:59;99449.47;;;19.52;55.84
77281;BME280;66339;47.262;17.144;2023-05-16T12:30:31;99456.25;;;19.50;55.94
77281;BME280;66339;47.262;17.144;2023-05-16T12:32:59;99460.50;;;19.51;55.89
77281;BME280;66339;47.262;17.144;2023-05-16T12:35:32;99462.47;;;19.45;56.22
77281;BME280;66339;47.262;17.144;2023-05-16T12:37:59;99462.41;;;19.50;55.93
77281;BME280;66339;47.262;17.144;2023-05-16T12:40:36;99473.34;;;19.54;55.81
77281;BME280;66339;47.262;17.144;2023-05-16T12:43:12;99481.66;;;19.52;55.67
77281;BME280;66339;47.262;17.144;2023-05-16T12:45:39;99485.75;;;19.50;55.74
77281;BME280;66339;47.262;17.144;2023-05-16T12:48:11;99471.22;;;19.51;55.95
77281;BME280;66339;47.262;17.144;2023-05-16T12:50:39;99464.28;;;19.50;55.95
77281;BME280;66339;47.262;17.144;2023-05-16T12:53:09;99466.19;;;19.49;55.84
77281;BME280;66339;47.262;17.144;2023-05-16T12:55:40;99477.97;;;19.48;56.03
77281;BME280;66339;47.262;17.144;2023-05-16T12:58:07;99474.81;;;19.46;55.66
77281;BME280;66339;47.262;17.144;2023-05-16T13:00:37;99468.03;;;19.49;55.06
77281;BME280;66339;47.262;17.144;2023-05-16T13:03:04;99474.81;;;19.46;55.06
77281;BME280;66339;47.262;17.144;2023-05-16T13:05:32;99473.19;;;19.45;55.80
77281;BME280;66339;47.262;17.144;2023-05-16T13:07:59;99464.06;;;19.46;55.93
77281;BME280;66339;47.262;17.144;2023-05-16T13:10:29;99460.31;;;19.47;56.10
77281;BME280;66339;47.262;17.144;2023-05-16T13:12:56;99463.97;;;19.51;55.79
77281;BME280;66339;47.262;17.144;2023-05-16T13:15:29;99460.72;;;19.54;55.63
77281;BME280;66339;47.262;17.144;2023-05-16T13:18:01;99462.50;;;19.59;55.42
77281;BME280;66339;47.262;17.144;2023-05-16T13:20:31;99452.56;;;19.59;55.38
77281;BME280;66339;47.262;17.144;2023-05-16T13:23:09;99467.00;;;19.64;54.95
77281;BME280;66339;47.262;17.144;2023-05-16T13:25:38;99465.41;;;19.62;54.92
77281;BME280;66339;47.262;17.144;2023-05-16T13:28:06;99460.06;;;19.62;54.70
77281;BME280;66339;47.262;17.144;2023-05-16T13:30:35;99452.78;;;19.63;54.56
77281;BME280;66339;47.262;17.144;2023-05-16T13:33:05;99463.53;;;19.63;54.49
77281;BME280;66339;47.262;17.144;2023-05-16T13:35:32;99455.78;;;19.61;54.51